sensor_id;sensor_type;location;lat;lon;timestamp;P1;durP1;ratioP1;P2;durP2;ratioP2
63690;SDS011;49837;57.280;27.070;2023-06-10T00:00:43;3.7;;;1.3;;
63690;SDS011;49837;57.280;27.070;2023-06-10T00:01:43;2.9;;;1.5;;
63690;SDS011;49837;57.280;27.070;2023-06-10T00:02:44;4.6;;;1.5;;
63690;SDS011;49837;57.280;27.070;2023-06-10T00:03:44;1.8;;;1.2;;
63690;SDS011;49837;57.280;27.070;2023-06-10T00:04:44;2.1;;;1.3;;
63690;SDS011;49837;57.280;27.070;2023-06-10T00:05:45;2.4;;;1.2;;
63690;SDS011;49837;57.280;27.070;2023-06-10T00:06:45;3.8;;;1.4;;
63690;SDS011;49837;57.280;27.070;2023-06-10T00:07:45;2.9;;;1.4;;
63690;SDS011;49837;57.280;27.070;2023-06-10T00:08:46;3.0;;;1.5;;
63690;SDS011;49837;57.280;27.070;2023-06-10T00:09:46;4.4;;;1.5;;
63690;SDS011;49837;57.280;27.070;2023-06-10T00:10:47;3.4;;;1.6;;
63690;SDS011;49837;57.280;27.070;2023-06-10T00:11:47;4.7;;;1.4;;
63690;SDS011;49837;57.280;27.070;2023-06-10T00:12:47;3.3;;;1.4;;
63690;SDS011;49837;57.280;27.070;2023-06-10T00:13:48;1.3;;;1.2;;
63690;SDS011;49837;57.280;27.070;2023-06-10T00:14:48;4.6;;;1.7;;
63690;SDS011;49837;57.280;27.070;2023-06-10T00:15:49;2.3;;;1.4;;
63690;SDS011;49837;57.280;27.070;2023-06-10T00:16:49;1.4;;;1.3;;
63690;SDS011;49837;57.280;27.070;2023-06-10T00:17:49;2.7;;;1.5;;
63690;SDS011;49837;57.280;27.070;2023-06-10T00:18:50;2.8;;;1.4;;
63690;SDS011;49837;57.280;27.070;2023-06-10T00:19:50;5.4;;;1.6;;
63690;SDS011;49837;57.280;27.070;2023-06-10T00:20:51;3.5;;;1.3;;
63690;SDS011;49837;57.280;27.070;2023-06-10T00:21:51;4.1;;;1.6;;
63690;SDS011;49837;57.280;27.070;2023-06-10T00:22:51;2.5;;;1.4;;
63690;SDS011;49837;57.280;27.070;2023-06-10T00:23:51;3.2;;;1.4;;
63690;SDS011;49837;57.280;27.070;2023-06-10T00:24:52;2.7;;;1.6;;
63690;SDS011;49837;57.280;27.070;2023-06-10T00:25:52;3.4;;;1.6;;
63690;SDS011;49837;57.280;27.070;2023-06-10T00:26:53;2.4;;;1.5;;
63690;SDS011;49837;57.280;27.070;2023-06-10T00:27:53;1.6;;;1.4;;
63690;SDS011;49837;57.280;27.070;2023-06-10T00:28:53;4.0;;;1.6;;
63690;SDS011;49837;57.280;27.070;2023-06-10T00:29:54;1.9;;;1.6;;
63690;SDS011;49837;57.280;27.070;2023-06-10T00:30:54;4.1;;;1.6;;
63690;SDS011;49837;57.280;27.070;2023-06-10T00:31:54;3.4;;;1.6;;
63690;SDS011;49837;57.280;27.070;2023-06-10T00:32:55;3.4;;;1.6;;
63690;SDS011;49837;57.280;27.070;2023-06-10T00:33:55;2.8;;;1.6;;
63690;SDS011;49837;57.280;27.070;2023-06-10T00:34:56;1.4;;;1.3;;
63690;SDS011;49837;57.280;27.070;2023-06-10T00:35:56;3.5;;;1.5;;
63690;SDS011;49837;57.280;27.070;2023-06-10T00:36:56;2.1;;;1.5;;
63690;SDS011;49837;57.280;27.070;2023-06-10T00:37:57;2.4;;;1.5;;
63690;SDS011;49837;57.280;27.070;2023-06-10T00:38:57;3.0;;;1.4;;
63690;SDS011;49837;57.280;27.070;2023-06-10T00:39:58;2.0;;;1.3;;
63690;SDS011;49837;57.280;27.070;2023-06-10T00:40:58;1.6;;;1.5;;
63690;SDS011;49837;57.280;27.070;2023-06-10T00:41:58;1.8;;;1.4;;
63690;SDS011;49837;57.280;27.070;2023-06-10T00:42:59;4.5;;;1.5;;
63690;SDS011;49837;57.280;27.070;2023-06-10T00:43:59;2.0;;;1.4;;
63690;SDS011;49837;57.280;27.070;2023-06-10T00:44:59;3.0;;;1.5;;
63690;SDS011;49837;57.280;27.070;2023-06-10T00:46:00;1.6;;;1.5;;
63690;SDS011;49837;57.280;27.070;2023-06-10T00:47:00;1.8;;;1.6;;
63690;SDS011;49837;57.280;27.070;2023-06-10T00:48:00;2.1;;;1.6;;
63690;SDS011;49837;57.280;27.070;2023-06-10T00:49:01;1.7;;;1.5;;
63690;SDS011;49837;57.280;27.070;2023-06-10T00:50:01;3.9;;;1.8;;
63690;SDS011;49837;57.280;27.070;2023-06-10T00:51:03;4.4;;;1.5;;
63690;SDS011;49837;57.280;27.070;2023-06-10T00:52:03;2.7;;;1.5;;
63690;SDS011;49837;57.280;27.070;2023-06-10T00:53:02;2.9;;;1.5;;
63690;SDS011;49837;57.280;27.070;2023-06-10T00:54:03;4.0;;;1.5;;
63690;SDS011;49837;57.280;27.070;2023-06-10T00:55:03;2.1;;;1.7;;
63690;SDS011;49837;57.280;27.070;2023-06-10T00:56:04;2.0;;;1.6;;
63690;SDS011;49837;57.280;27.070;2023-06-10T00:57:04;2.2;;;1.6;;
63690;SDS011;49837;57.280;27.070;2023-06-10T00:58:04;3.3;;;1.5;;
63690;SDS011;49837;57.280;27.070;2023-06-10T00:59:05;3.9;;;2.2;;
63690;SDS011;49837;57.280;27.070;2023-06-10T01:00:05;2.4;;;1.6;;
63690;SDS011;49837;57.280;27.070;2023-06-10T01:01:05;2.9;;;1.8;;
63690;SDS011;49837;57.280;27.070;2023-06-10T01:02:06;3.7;;;1.6;;
63690;SDS011;49837;57.280;27.070;2023-06-10T01:03:06;2.0;;;1.5;;
63690;SDS011;49837;57.280;27.070;2023-06-10T01:04:07;2.1;;;1.6;;
63690;SDS011;49837;57.280;27.070;2023-06-10T01:05:10;2.4;;;1.7;;
63690;SDS011;49837;57.280;27.070;2023-06-10T01:06:25;2.6;;;1.6;;
63690;SDS011;49837;57.280;27.070;2023-06-10T01:07:26;2.7;;;1.6;;
63690;SDS011;49837;57.280;27.070;2023-06-10T01:08:28;2.9;;;1.8;;
63690;SDS011;49837;57.280;27.070;2023-06-10T01:09:30;3.6;;;1.5;;
63690;SDS011;49837;57.280;27.070;2023-06-10T01:10:33;2.3;;;1.5;;
63690;SDS011;49837;57.280;27.070;2023-06-10T01:11:28;1.9;;;1.4;;
63690;SDS011;49837;57.280;27.070;2023-06-10T01:12:33;2.9;;;1.7;;
63690;SDS011;49837;57.280;27.070;2023-06-10T01:13:33;3.8;;;1.7;;
63690;SDS011;49837;57.280;27.070;2023-06-10T01:14:34;4.5;;;1.6;;
63690;SDS011;49837;57.280;27.070;2023-06-10T01:15:35;4.3;;;1.6;;
63690;SDS011;49837;57.280;27.070;2023-06-10T01:16:36;4.3;;;1.8;;
63690;SDS011;49837;57.280;27.070;2023-06-10T01:17:37;2.5;;;1.7;;
63690;SDS011;49837;57.280;27.070;2023-06-10T01:18:39;2.5;;;1.7;;
63690;SDS011;49837;57.280;27.070;2023-06-10T01:19:38;4.7;;;1.5;;
63690;SDS011;49837;57.280;27.070;2023-06-10T01:20:39;3.8;;;1.6;;
63690;SDS011;49837;57.280;27.070;2023-06-10T01:21:40;4.0;;;1.7;;
63690;SDS011;49837;57.280;27.070;2023-06-10T01:22:39;2.2;;;1.6;;
63690;SDS011;49837;57.280;27.070;2023-06-10T01:23:40;2.3;;;1.5;;
63690;SDS011;49837;57.280;27.070;2023-06-10T01:24:40;2.4;;;1.4;;
63690;SDS011;49837;57.280;27.070;2023-06-10T01:25:41;3.1;;;1.5;;
63690;SDS011;49837;57.280;27.070;2023-06-10T01:26:44;2.1;;;1.6;;
63690;SDS011;49837;57.280;27.070;2023-06-10T01:27:45;4.6;;;2.1;;
63690;SDS011;49837;57.280;27.070;2023-06-10T01:28:49;2.9;;;1.4;;
63690;SDS011;49837;57.280;27.070;2023-06-10T01:29:49;2.6;;;1.7;;
63690;SDS011;49837;57.280;27.070;2023-06-10T01:31:10;3.0;;;1.7;;
63690;SDS011;49837;57.280;27.070;2023-06-10T01:31:58;2.3;;;1.6;;
63690;SDS011;49837;57.280;27.070;2023-06-10T01:32:57;3.7;;;1.7;;
63690;SDS011;49837;57.280;27.070;2023-06-10T01:33:57;3.6;;;1.7;;
63690;SDS011;49837;57.280;27.070;2023-06-10T01:34:57;3.8;;;1.6;;
63690;SDS011;49837;57.280;27.070;2023-06-10T01:35:58;2.4;;;1.6;;
63690;SDS011;49837;57.280;27.070;2023-06-10T01:36:58;2.7;;;1.8;;
63690;SDS011;49837;57.280;27.070;2023-06-10T01:37:59;1.8;;;1.5;;
63690;SDS011;49837;57.280;27.070;2023-06-10T01:38:59;2.4;;;1.6;;
63690;SDS011;49837;57.280;27.070;2023-06-10T01:39:59;4.3;;;1.9;;
63690;SDS011;49837;57.280;27.070;2023-06-10T01:41:00;2.7;;;1.8;;
63690;SDS011;49837;57.280;27.070;2023-06-10T01:42:00;4.0;;;2.0;;
63690;SDS011;49837;57.280;27.070;2023-06-10T01:43:01;2.5;;;1.8;;
63690;SDS011;49837;57.280;27.070;2023-06-10T01:44:01;2.6;;;1.7;;
63690;SDS011;49837;57.280;27.070;2023-06-10T01:45:01;2.7;;;1.7;;
63690;SDS011;49837;57.280;27.070;2023-06-10T01:46:02;3.1;;;1.7;;
63690;SDS011;49837;57.280;27.070;2023-06-10T01:47:02;2.3;;;1.7;;
63690;SDS011;49837;57.280;27.070;2023-06-10T01:48:02;2.0;;;1.8;;
63690;SDS011;49837;57.280;27.070;2023-06-10T01:49:03;2.2;;;1.5;;
63690;SDS011;49837;57.280;27.070;2023-06-10T01:50:03;6.0;;;1.8;;
63690;SDS011;49837;57.280;27.070;2023-06-10T01:51:04;2.3;;;1.5;;
63690;SDS011;49837;57.280;27.070;2023-06-10T01:52:04;3.6;;;1.8;;
63690;SDS011;49837;57.280;27.070;2023-06-10T01:53:04;3.1;;;2.1;;
63690;SDS011;49837;57.280;27.070;2023-06-10T01:54:04;5.1;;;1.9;;
63690;SDS011;49837;57.280;27.070;2023-06-10T01:55:05;5.8;;;1.6;;
63690;SDS011;49837;57.280;27.070;2023-06-10T01:56:05;2.3;;;1.8;;
63690;SDS011;49837;57.280;27.070;2023-06-10T01:57:06;2.6;;;1.8;;
63690;SDS011;49837;57.280;27.070;2023-06-10T01:58:06;2.9;;;1.7;;
63690;SDS011;49837;57.280;27.070;2023-06-10T01:59:06;3.6;;;1.8;;
63690;SDS011;49837;57.280;27.070;2023-06-10T02:00:07;2.3;;;1.5;;
63690;SDS011;49837;57.280;27.070;2023-06-10T02:01:07;3.4;;;1.7;;
63690;SDS011;49837;57.280;27.070;2023-06-10T02:02:07;2.7;;;1.8;;
63690;SDS011;49837;57.280;27.070;2023-06-10T02:03:08;3.9;;;1.8;;
63690;SDS011;49837;57.280;27.070;2023-06-10T02:04:08;3.2;;;1.8;;
63690;SDS011;49837;57.280;27.070;2023-06-10T02:05:09;3.4;;;1.8;;
63690;SDS011;49837;57.280;27.070;2023-06-10T02:06:09;4.2;;;1.7;;
63690;SDS011;49837;57.280;27.070;2023-06-10T02:07:09;4.9;;;1.7;;
63690;SDS011;49837;57.280;27.070;2023-06-10T02:08:10;3.0;;;1.8;;
63690;SDS011;49837;57.280;27.070;2023-06-10T02:09:10;5.1;;;1.7;;
63690;SDS011;49837;57.280;27.070;2023-06-10T02:10:10;2.4;;;1.8;;
63690;SDS011;49837;57.280;27.070;2023-06-10T02:11:11;3.2;;;1.7;;
63690;SDS011;49837;57.280;27.070;2023-06-10T02:12:11;4.8;;;2.0;;
63690;SDS011;49837;57.280;27.070;2023-06-10T02:13:12;3.8;;;1.8;;
63690;SDS011;49837;57.280;27.070;2023-06-10T02:14:12;3.1;;;1.7;;
63690;SDS011;49837;57.280;27.070;2023-06-10T02:15:13;5.1;;;1.7;;
63690;SDS011;49837;57.280;27.070;2023-06-10T02:16:13;2.8;;;1.9;;
63690;SDS011;49837;57.280;27.070;2023-06-10T02:17:13;4.0;;;1.8;;
63690;SDS011;49837;57.280;27.070;2023-06-10T02:18:14;4.5;;;2.0;;
63690;SDS011;49837;57.280;27.070;2023-06-10T02:19:14;4.1;;;2.0;;
63690;SDS011;49837;57.280;27.070;2023-06-10T02:20:15;3.3;;;2.0;;
63690;SDS011;49837;57.280;27.070;2023-06-10T02:21:15;5.3;;;2.0;;
63690;SDS011;49837;57.280;27.070;2023-06-10T02:22:16;2.7;;;1.6;;
63690;SDS011;49837;57.280;27.070;2023-06-10T02:23:16;2.1;;;1.8;;
63690;SDS011;49837;57.280;27.070;2023-06-10T02:24:16;2.4;;;1.7;;
63690;SDS011;49837;57.280;27.070;2023-06-10T02:25:16;5.7;;;2.2;;
63690;SDS011;49837;57.280;27.070;2023-06-10T02:26:17;2.0;;;1.6;;
63690;SDS011;49837;57.280;27.070;2023-06-10T02:27:17;3.4;;;1.8;;
63690;SDS011;49837;57.280;27.070;2023-06-10T02:28:17;3.6;;;1.7;;
63690;SDS011;49837;57.280;27.070;2023-06-10T02:29:18;2.3;;;1.8;;
63690;SDS011;49837;57.280;27.070;2023-06-10T02:30:18;3.2;;;1.9;;
63690;SDS011;49837;57.280;27.070;2023-06-10T02:31:19;3.6;;;2.0;;
63690;SDS011;49837;57.280;27.070;2023-06-10T02:32:19;2.5;;;1.8;;
63690;SDS011;49837;57.280;27.070;2023-06-10T02:33:19;3.3;;;1.9;;
63690;SDS011;49837;57.280;27.070;2023-06-10T02:34:20;2.9;;;1.9;;
63690;SDS011;49837;57.280;27.070;2023-06-10T02:35:20;4.9;;;1.8;;
63690;SDS011;49837;57.280;27.070;2023-06-10T02:36:20;5.8;;;2.2;;
63690;SDS011;49837;57.280;27.070;2023-06-10T02:37:21;3.3;;;2.0;;
63690;SDS011;49837;57.280;27.070;2023-06-10T02:38:21;4.1;;;1.9;;
63690;SDS011;49837;57.280;27.070;2023-06-10T02:39:22;4.6;;;1.9;;
63690;SDS011;49837;57.280;27.070;2023-06-10T02:40:22;2.4;;;1.9;;
63690;SDS011;49837;57.280;27.070;2023-06-10T02:41:22;2.7;;;1.8;;
63690;SDS011;49837;57.280;27.070;2023-06-10T02:42:23;4.2;;;1.8;;
63690;SDS011;49837;57.280;27.070;2023-06-10T02:43:23;3.6;;;2.0;;
63690;SDS011;49837;57.280;27.070;2023-06-10T02:44:23;3.3;;;2.1;;
63690;SDS011;49837;57.280;27.070;2023-06-10T02:45:24;2.4;;;1.9;;
63690;SDS011;49837;57.280;27.070;2023-06-10T02:46:24;4.0;;;1.9;;
63690;SDS011;49837;57.280;27.070;2023-06-10T02:47:24;5.1;;;1.8;;
63690;SDS011;49837;57.280;27.070;2023-06-10T02:48:25;5.9;;;2.0;;
63690;SDS011;49837;57.280;27.070;2023-06-10T02:49:25;7.2;;;2.4;;
63690;SDS011;49837;57.280;27.070;2023-06-10T02:50:26;4.6;;;1.8;;
63690;SDS011;49837;57.280;27.070;2023-06-10T02:51:26;3.9;;;1.9;;
63690;SDS011;49837;57.280;27.070;2023-06-10T02:52:26;4.5;;;2.0;;
63690;SDS011;49837;57.280;27.070;2023-06-10T02:53:27;3.8;;;1.7;;
63690;SDS011;49837;57.280;27.070;2023-06-10T02:54:27;5.6;;;1.9;;
63690;SDS011;49837;57.280;27.070;2023-06-10T02:55:27;4.5;;;1.6;;
63690;SDS011;49837;57.280;27.070;2023-06-10T02:56:28;3.2;;;2.0;;
63690;SDS011;49837;57.280;27.070;2023-06-10T02:57:28;4.2;;;1.8;;
63690;SDS011;49837;57.280;27.070;2023-06-10T02:58:28;2.9;;;1.8;;
63690;SDS011;49837;57.280;27.070;2023-06-10T02:59:29;3.3;;;1.7;;
63690;SDS011;49837;57.280;27.070;2023-06-10T03:00:29;3.6;;;1.9;;
63690;SDS011;49837;57.280;27.070;2023-06-10T03:01:30;5.2;;;1.9;;
63690;SDS011;49837;57.280;27.070;2023-06-10T03:02:30;4.8;;;2.1;;
63690;SDS011;49837;57.280;27.070;2023-06-10T03:03:30;3.9;;;1.9;;
63690;SDS011;49837;57.280;27.070;2023-06-10T03:04:31;8.8;;;2.1;;
63690;SDS011;49837;57.280;27.070;2023-06-10T03:05:31;4.0;;;1.8;;
63690;SDS011;49837;57.280;27.070;2023-06-10T03:06:32;5.9;;;1.8;;
63690;SDS011;49837;57.280;27.070;2023-06-10T03:07:32;6.6;;;1.9;;
63690;SDS011;49837;57.280;27.070;2023-06-10T03:08:32;4.4;;;1.7;;
63690;SDS011;49837;57.280;27.070;2023-06-10T03:09:33;5.6;;;1.9;;
63690;SDS011;49837;57.280;27.070;2023-06-10T03:10:33;5.1;;;2.1;;
63690;SDS011;49837;57.280;27.070;2023-06-10T03:11:33;7.0;;;2.3;;
63690;SDS011;49837;57.280;27.070;2023-06-10T03:12:34;3.9;;;2.1;;
63690;SDS011;49837;57.280;27.070;2023-06-10T03:13:34;4.0;;;1.7;;
63690;SDS011;49837;57.280;27.070;2023-06-10T03:14:35;3.4;;;1.8;;
63690;SDS011;49837;57.280;27.070;2023-06-10T03:15:35;3.6;;;1.7;;
63690;SDS011;49837;57.280;27.070;2023-06-10T03:16:35;5.2;;;1.8;;
63690;SDS011;49837;57.280;27.070;2023-06-10T03:17:36;4.2;;;1.7;;
63690;SDS011;49837;57.280;27.070;2023-06-10T03:18:36;3.5;;;1.8;;
63690;SDS011;49837;57.280;27.070;2023-06-10T03:19:36;3.9;;;1.8;;
63690;SDS011;49837;57.280;27.070;2023-06-10T03:20:37;7.7;;;1.8;;
63690;SDS011;49837;57.280;27.070;2023-06-10T03:21:37;3.3;;;2.2;;
63690;SDS011;49837;57.280;27.070;2023-06-10T03:22:38;3.7;;;1.8;;
63690;SDS011;49837;57.280;27.070;2023-06-10T03:23:38;3.0;;;1.7;;
63690;SDS011;49837;57.280;27.070;2023-06-10T03:24:38;3.5;;;1.7;;
63690;SDS011;49837;57.280;27.070;2023-06-10T03:25:39;3.4;;;1.8;;
63690;SDS011;49837;57.280;27.070;2023-06-10T03:26:39;8.1;;;1.7;;
63690;SDS011;49837;57.280;27.070;2023-06-10T03:27:40;3.8;;;1.9;;
63690;SDS011;49837;57.280;27.070;2023-06-10T03:28:40;3.6;;;1.8;;
63690;SDS011;49837;57.280;27.070;2023-06-10T03:29:40;1.8;;;1.6;;
63690;SDS011;49837;57.280;27.070;2023-06-10T03:30:41;3.4;;;1.6;;
63690;SDS011;49837;57.280;27.070;2023-06-10T03:31:41;3.2;;;1.5;;
63690;SDS011;49837;57.280;27.070;2023-06-10T03:32:41;2.8;;;1.6;;
63690;SDS011;49837;57.280;27.070;2023-06-10T03:33:42;3.8;;;1.8;;
63690;SDS011;49837;57.280;27.070;2023-06-10T03:34:43;2.4;;;1.5;;
63690;SDS011;49837;57.280;27.070;2023-06-10T03:35:43;2.6;;;1.7;;
63690;SDS011;49837;57.280;27.070;2023-06-10T03:36:43;2.8;;;1.5;;
63690;SDS011;49837;57.280;27.070;2023-06-10T03:37:43;3.9;;;1.8;;
63690;SDS011;49837;57.280;27.070;2023-06-10T03:38:44;2.7;;;1.7;;
63690;SDS011;49837;57.280;27.070;2023-06-10T03:39:44;2.0;;;1.7;;
63690;SDS011;49837;57.280;27.070;2023-06-10T03:40:44;3.0;;;1.6;;
63690;SDS011;49837;57.280;27.070;2023-06-10T03:41:45;1.7;;;1.6;;
63690;SDS011;49837;57.280;27.070;2023-06-10T03:42:45;2.8;;;1.6;;
63690;SDS011;49837;57.280;27.070;2023-06-10T03:43:46;2.5;;;1.6;;
63690;SDS011;49837;57.280;27.070;2023-06-10T03:44:46;4.4;;;1.6;;
63690;SDS011;49837;57.280;27.070;2023-06-10T03:45:47;1.7;;;1.6;;
63690;SDS011;49837;57.280;27.070;2023-06-10T03:46:47;6.7;;;1.8;;
63690;SDS011;49837;57.280;27.070;2023-06-10T03:47:47;2.0;;;1.5;;
63690;SDS011;49837;57.280;27.070;2023-06-10T03:48:48;1.9;;;1.5;;
63690;SDS011;49837;57.280;27.070;2023-06-10T03:49:48;2.6;;;1.5;;
63690;SDS011;49837;57.280;27.070;2023-06-10T03:50:48;2.2;;;1.6;;
63690;SDS011;49837;57.280;27.070;2023-06-10T03:51:49;9.2;;;2.0;;
63690;SDS011;49837;57.280;27.070;2023-06-10T03:52:49;1.3;;;1.2;;
63690;SDS011;49837;57.280;27.070;2023-06-10T03:53:50;2.3;;;1.5;;
63690;SDS011;49837;57.280;27.070;2023-06-10T03:54:50;5.0;;;1.6;;
63690;SDS011;49837;57.280;27.070;2023-06-10T03:55:50;2.8;;;1.4;;
63690;SDS011;49837;57.280;27.070;2023-06-10T03:56:51;3.2;;;1.4;;
63690;SDS011;49837;57.280;27.070;2023-06-10T03:57:51;1.5;;;1.4;;
63690;SDS011;49837;57.280;27.070;2023-06-10T03:58:52;2.2;;;1.4;;
63690;SDS011;49837;57.280;27.070;2023-06-10T03:59:52;5.0;;;1.4;;
63690;SDS011;49837;57.280;27.070;2023-06-10T04:00:53;1.6;;;1.2;;
63690;SDS011;49837;57.280;27.070;2023-06-10T04:01:53;2.8;;;1.5;;
63690;SDS011;49837;57.280;27.070;2023-06-10T04:02:53;2.9;;;1.4;;
63690;SDS011;49837;57.280;27.070;2023-06-10T04:03:54;3.4;;;1.6;;
63690;SDS011;49837;57.280;27.070;2023-06-10T04:04:54;2.4;;;1.5;;
63690;SDS011;49837;57.280;27.070;2023-06-10T04:05:55;3.3;;;1.2;;
63690;SDS011;49837;57.280;27.070;2023-06-10T04:06:55;2.1;;;1.3;;
63690;SDS011;49837;57.280;27.070;2023-06-10T04:07:56;2.7;;;1.5;;
63690;SDS011;49837;57.280;27.070;2023-06-10T04:08:56;4.2;;;1.5;;
63690;SDS011;49837;57.280;27.070;2023-06-10T04:09:56;2.7;;;1.3;;
63690;SDS011;49837;57.280;27.070;2023-06-10T04:10:57;3.5;;;1.3;;
63690;SDS011;49837;57.280;27.070;2023-06-10T04:11:57;2.0;;;1.4;;
63690;SDS011;49837;57.280;27.070;2023-06-10T04:12:58;1.4;;;1.3;;
63690;SDS011;49837;57.280;27.070;2023-06-10T04:13:58;3.3;;;1.4;;
63690;SDS011;49837;57.280;27.070;2023-06-10T04:14:58;3.6;;;1.5;;
63690;SDS011;49837;57.280;27.070;2023-06-10T04:15:59;1.5;;;1.4;;
63690;SDS011;49837;57.280;27.070;2023-06-10T04:16:59;1.8;;;1.6;;
63690;SDS011;49837;57.280;27.070;2023-06-10T04:18:00;2.4;;;1.7;;
63690;SDS011;49837;57.280;27.070;2023-06-10T04:19:00;1.5;;;1.4;;
63690;SDS011;49837;57.280;27.070;2023-06-10T04:20:01;4.5;;;1.4;;
63690;SDS011;49837;57.280;27.070;2023-06-10T04:21:01;2.7;;;1.4;;
63690;SDS011;49837;57.280;27.070;2023-06-10T04:22:01;2.6;;;1.4;;
63690;SDS011;49837;57.280;27.070;2023-06-10T04:23:02;1.5;;;1.4;;
63690;SDS011;49837;57.280;27.070;2023-06-10T04:24:02;3.2;;;1.5;;
63690;SDS011;49837;57.280;27.070;2023-06-10T04:25:03;2.7;;;1.3;;
63690;SDS011;49837;57.280;27.070;2023-06-10T04:26:03;1.6;;;1.3;;
63690;SDS011;49837;57.280;27.070;2023-06-10T04:27:04;2.2;;;1.4;;
63690;SDS011;49837;57.280;27.070;2023-06-10T04:28:04;2.6;;;1.3;;
63690;SDS011;49837;57.280;27.070;2023-06-10T04:29:04;2.6;;;1.3;;
63690;SDS011;49837;57.280;27.070;2023-06-10T04:30:05;6.5;;;2.4;;
63690;SDS011;49837;57.280;27.070;2023-06-10T04:31:05;9.7;;;6.4;;
63690;SDS011;49837;57.280;27.070;2023-06-10T04:32:06;4.1;;;2.4;;
63690;SDS011;49837;57.280;27.070;2023-06-10T04:33:06;4.9;;;3.1;;
63690;SDS011;49837;57.280;27.070;2023-06-10T04:34:06;4.1;;;1.7;;
63690;SDS011;49837;57.280;27.070;2023-06-10T04:35:07;3.4;;;1.5;;
63690;SDS011;49837;57.280;27.070;2023-06-10T04:36:08;1.9;;;1.4;;
63690;SDS011;49837;57.280;27.070;2023-06-10T04:37:09;2.4;;;1.4;;
63690;SDS011;49837;57.280;27.070;2023-06-10T04:38:09;3.3;;;1.5;;
63690;SDS011;49837;57.280;27.070;2023-06-10T04:39:09;3.6;;;1.3;;
63690;SDS011;49837;57.280;27.070;2023-06-10T04:40:10;1.9;;;1.4;;
63690;SDS011;49837;57.280;27.070;2023-06-10T04:41:10;2.8;;;1.1;;
63690;SDS011;49837;57.280;27.070;2023-06-10T04:42:11;4.2;;;1.6;;
63690;SDS011;49837;57.280;27.070;2023-06-10T04:43:11;2.1;;;1.3;;
63690;SDS011;49837;57.280;27.070;2023-06-10T04:44:12;2.8;;;1.3;;
63690;SDS011;49837;57.280;27.070;2023-06-10T04:45:12;3.3;;;1.3;;
63690;SDS011;49837;57.280;27.070;2023-06-10T04:46:12;10.0;;;1.6;;
63690;SDS011;49837;57.280;27.070;2023-06-10T04:47:13;4.2;;;1.7;;
63690;SDS011;49837;57.280;27.070;2023-06-10T04:48:13;2.6;;;1.3;;
63690;SDS011;49837;57.280;27.070;2023-06-10T04:49:13;2.8;;;1.3;;
63690;SDS011;49837;57.280;27.070;2023-06-10T04:50:14;2.9;;;1.5;;
63690;SDS011;49837;57.280;27.070;2023-06-10T04:51:14;3.9;;;1.3;;
63690;SDS011;49837;57.280;27.070;2023-06-10T04:52:15;4.4;;;1.5;;
63690;SDS011;49837;57.280;27.070;2023-06-10T04:53:15;3.8;;;1.2;;
63690;SDS011;49837;57.280;27.070;2023-06-10T04:54:15;1.9;;;1.2;;
63690;SDS011;49837;57.280;27.070;2023-06-10T04:55:16;1.6;;;1.1;;
63690;SDS011;49837;57.280;27.070;2023-06-10T04:56:16;1.5;;;1.1;;
63690;SDS011;49837;57.280;27.070;2023-06-10T04:57:17;1.9;;;1.1;;
63690;SDS011;49837;57.280;27.070;2023-06-10T04:58:17;2.8;;;1.0;;
63690;SDS011;49837;57.280;27.070;2023-06-10T04:59:18;2.7;;;1.3;;
63690;SDS011;49837;57.280;27.070;2023-06-10T05:00:18;1.3;;;1.1;;
63690;SDS011;49837;57.280;27.070;2023-06-10T05:01:18;2.0;;;1.1;;
63690;SDS011;49837;57.280;27.070;2023-06-10T05:02:19;1.2;;;1.0;;
63690;SDS011;49837;57.280;27.070;2023-06-10T05:03:19;1.5;;;1.0;;
63690;SDS011;49837;57.280;27.070;2023-06-10T05:04:20;1.9;;;1.0;;
63690;SDS011;49837;57.280;27.070;2023-06-10T05:05:20;2.0;;;1.0;;
63690;SDS011;49837;57.280;27.070;2023-06-10T05:06:20;3.4;;;1.1;;
63690;SDS011;49837;57.280;27.070;2023-06-10T05:07:21;1.2;;;1.1;;
63690;SDS011;49837;57.280;27.070;2023-06-10T05:08:21;1.3;;;1.0;;
63690;SDS011;49837;57.280;27.070;2023-06-10T05:09:22;0.9;;;0.9;;
63690;SDS011;49837;57.280;27.070;2023-06-10T05:10:22;1.0;;;1.0;;
63690;SDS011;49837;57.280;27.070;2023-06-10T05:11:23;1.5;;;1.0;;
63690;SDS011;49837;57.280;27.070;2023-06-10T05:12:23;1.1;;;1.0;;
63690;SDS011;49837;57.280;27.070;2023-06-10T05:13:23;1.5;;;1.1;;
63690;SDS011;49837;57.280;27.070;2023-06-10T05:14:24;2.9;;;1.0;;
63690;SDS011;49837;57.280;27.070;2023-06-10T05:15:24;1.1;;;1.0;;
63690;SDS011;49837;57.280;27.070;2023-06-10T05:16:25;3.8;;;0.9;;
63690;SDS011;49837;57.280;27.070;2023-06-10T05:17:25;0.8;;;0.8;;
63690;SDS011;49837;57.280;27.070;2023-06-10T05:18:25;1.2;;;1.0;;
63690;SDS011;49837;57.280;27.070;2023-06-10T05:19:26;1.0;;;1.0;;
63690;SDS011;49837;57.280;27.070;2023-06-10T05:20:26;5.1;;;1.0;;
63690;SDS011;49837;57.280;27.070;2023-06-10T05:21:27;1.6;;;1.2;;
63690;SDS011;49837;57.280;27.070;2023-06-10T05:22:28;4.6;;;1.1;;
63690;SDS011;49837;57.280;27.070;2023-06-10T05:23:29;1.4;;;1.0;;
63690;SDS011;49837;57.280;27.070;2023-06-10T05:24:29;1.4;;;1.0;;
63690;SDS011;49837;57.280;27.070;2023-06-10T05:25:32;2.7;;;1.0;;
63690;SDS011;49837;57.280;27.070;2023-06-10T05:26:30;3.7;;;1.2;;
63690;SDS011;49837;57.280;27.070;2023-06-10T05:27:30;6.0;;;1.3;;
63690;SDS011;49837;57.280;27.070;2023-06-10T05:28:31;10.3;;;1.4;;
63690;SDS011;49837;57.280;27.070;2023-06-10T05:29:31;2.9;;;1.0;;
63690;SDS011;49837;57.280;27.070;2023-06-10T05:30:32;7.2;;;1.4;;
63690;SDS011;49837;57.280;27.070;2023-06-10T05:31:32;4.1;;;1.4;;
63690;SDS011;49837;57.280;27.070;2023-06-10T05:32:33;3.5;;;0.9;;
63690;SDS011;49837;57.280;27.070;2023-06-10T05:33:33;3.5;;;1.1;;
63690;SDS011;49837;57.280;27.070;2023-06-10T05:34:34;4.1;;;1.1;;
63690;SDS011;49837;57.280;27.070;2023-06-10T05:35:34;3.0;;;1.2;;
63690;SDS011;49837;57.280;27.070;2023-06-10T05:36:35;2.2;;;1.0;;
63690;SDS011;49837;57.280;27.070;2023-06-10T05:37:35;4.9;;;1.1;;
63690;SDS011;49837;57.280;27.070;2023-06-10T05:38:36;2.2;;;1.0;;
63690;SDS011;49837;57.280;27.070;2023-06-10T05:39:36;3.6;;;1.0;;
63690;SDS011;49837;57.280;27.070;2023-06-10T05:40:36;11.4;;;1.4;;
63690;SDS011;49837;57.280;27.070;2023-06-10T05:41:37;11.0;;;1.0;;
63690;SDS011;49837;57.280;27.070;2023-06-10T05:42:37;4.8;;;1.2;;
63690;SDS011;49837;57.280;27.070;2023-06-10T05:43:38;2.6;;;1.0;;
63690;SDS011;49837;57.280;27.070;2023-06-10T05:44:38;1.2;;;1.1;;
63690;SDS011;49837;57.280;27.070;2023-06-10T05:45:39;10.6;;;1.4;;
63690;SDS011;49837;57.280;27.070;2023-06-10T05:46:39;6.2;;;1.4;;
63690;SDS011;49837;57.280;27.070;2023-06-10T05:47:39;2.5;;;1.0;;
63690;SDS011;49837;57.280;27.070;2023-06-10T05:48:40;2.9;;;0.9;;
63690;SDS011;49837;57.280;27.070;2023-06-10T05:49:40;3.0;;;0.9;;
63690;SDS011;49837;57.280;27.070;2023-06-10T05:50:41;2.0;;;0.8;;
63690;SDS011;49837;57.280;27.070;2023-06-10T05:51:41;2.9;;;1.1;;
63690;SDS011;49837;57.280;27.070;2023-06-10T05:52:42;6.2;;;1.1;;
63690;SDS011;49837;57.280;27.070;2023-06-10T05:53:42;3.6;;;1.1;;
63690;SDS011;49837;57.280;27.070;2023-06-10T05:54:42;2.1;;;1.0;;
63690;SDS011;49837;57.280;27.070;2023-06-10T05:55:43;2.4;;;0.9;;
63690;SDS011;49837;57.280;27.070;2023-06-10T05:56:43;2.1;;;1.0;;
63690;SDS011;49837;57.280;27.070;2023-06-10T05:57:44;2.2;;;1.2;;
63690;SDS011;49837;57.280;27.070;2023-06-10T05:58:44;1.0;;;0.9;;
63690;SDS011;49837;57.280;27.070;2023-06-10T05:59:45;4.1;;;1.1;;
63690;SDS011;49837;57.280;27.070;2023-06-10T06:00:45;4.8;;;1.0;;
63690;SDS011;49837;57.280;27.070;2023-06-10T06:01:45;1.6;;;0.9;;
63690;SDS011;49837;57.280;27.070;2023-06-10T06:02:46;2.5;;;1.2;;
63690;SDS011;49837;57.280;27.070;2023-06-10T06:03:46;2.8;;;1.1;;
63690;SDS011;49837;57.280;27.070;2023-06-10T06:04:47;1.7;;;1.1;;
63690;SDS011;49837;57.280;27.070;2023-06-10T06:05:47;2.6;;;1.0;;
63690;SDS011;49837;57.280;27.070;2023-06-10T06:06:48;1.1;;;0.9;;
63690;SDS011;49837;57.280;27.070;2023-06-10T06:07:48;1.9;;;1.1;;
63690;SDS011;49837;57.280;27.070;2023-06-10T06:08:48;2.7;;;1.1;;
63690;SDS011;49837;57.280;27.070;2023-06-10T06:09:49;2.2;;;1.0;;